Sands, North Carolina
Current Conditions -  °F | °C
As of 12:55 PM on Saturday 25 Oct 2014 (Local Time) from KTNB Reporting Station
Clear Clear  
Wind Chill: 61°   Ceiling: Unl
Heat Index: 61°   Visibility: 10mi
Dew Point: 17°   Wind: 14mph
Humidity: 18%   Direction: 300°WNW
Pressure: 30.07"   Gusts: 22mph
Location:  36.2085°N, 81.6605°W
Report Text: KTNB 251655Z AUTO 30012G19KT 10SM CLR 16/M08 A3007 RMK AO2 T01611081
Loading
Personal Weather Stations






























Interactive Weather Map
Tropical Storm Tracking
New forecast layout! Learn more

10-Day Weather Forecast

Advertisements
Track Severe Weather on mobile